Latest Weather Observations for The Monument

IDQ60801

Issued at 8:02 pm EST Friday 27 March 2015 (issued every 30 minutes, with the page automatically refreshed every 10 minutes)

About weather observations | Map of weather stations | Latest weather observations for QLD | Other Formats
Station Details ID: 037034 Name: THE MONUMENT AIRPORT Lat: -21.81 Lon: 139.93 Height: 288.4 m
Data from the previous 72 hours. | See also: Recent months at The Monument
Date/Time
EST
Temp
°C
App
Temp
°C
Dew
Point
Rel
Hum
%
Delta-T
°C
Wind Press
QNH
hPa
Press
MSL
hPa
Rain
since 9 am
mm
Dir
 
Spd
km/h
Gust
km/h
Spd
kts
Gust
kts
27/08:00pm 29.6 23.7 -0.7 14 14.4 S 20 30 11 16 1017.5 1015.5 0.0
27/07:30pm 30.1 23.5 -0.3 14 14.6 S 24 32 13 17 1017.1 1015.1 0.0
27/07:00pm 30.8 24.3 0.2 14 14.9 S 24 33 13 18 1016.6 1014.7 0.0
27/06:30pm 31.6 24.7 -0.1 13 15.5 SSE 26 33 14 18 1016.4 1014.5 0.0
27/06:00pm 32.4 25.9 0.5 13 15.8 SSE 24 32 13 17 1016.1 1014.2 0.0
27/05:30pm 33.4 26.3 1.3 13 16.2 S 28 37 15 20 1015.9 1014.0 0.0
27/05:00pm 33.8 27.1 1.6 13 16.4 S 26 41 14 22 1015.9 1014.0 0.0
27/04:30pm 34.0 27.5 0.6 12 16.8 S 24 37 13 20 1015.9 1014.0 0.0
27/04:00pm 34.1 27.7 0.7 12 16.8 SSE 24 39 13 21 1015.9 1014.0 0.0
27/03:30pm 34.2 28.0 1.9 13 16.6 SSE 24 37 13 20 1016.1 1014.2 0.0
27/03:00pm 33.9 27.2 1.6 13 16.5 S 26 41 14 22 1016.1 1014.2 0.0
27/02:30pm 33.9 27.2 1.6 13 16.5 S 26 41 14 22 1016.4 1014.5 0.0
27/02:00pm 33.3 26.2 1.2 13 16.2 SSE 28 37 15 20 1017.1 1015.1 0.0
27/01:30pm 33.1 26.7 1.0 13 16.1 SSE 24 35 13 19 1017.5 1015.5 0.0
27/01:00pm 32.5 26.2 1.6 14 15.6 SSE 24 41 13 22 1018.1 1016.2 0.0
27/12:30pm 31.6 25.2 0.9 14 15.2 SSE 24 37 13 20 1018.7 1016.8 0.0
27/12:00pm 30.8 24.4 1.2 15 14.7 SSE 24 33 13 18 1019.4 1017.5 0.0
27/11:30am 29.6 22.7 0.2 15 14.2 SSE 26 37 14 20 1019.9 1018.0 0.0
27/11:00am 28.3 21.8 0.1 16 13.5 SSE 24 35 13 19 1020.2 1018.3 0.0
27/10:30am 27.3 20.8 0.1 17 12.9 SSE 24 32 13 17 1020.5 1018.5 0.0
27/10:00am 26.2 20.0 0.0 18 12.3 SSE 22 32 12 17 1021.0 1019.0 0.0
27/09:30am 24.6 17.7 0.2 20 11.4 SSE 26 33 14 18 1021.2 1019.3 0.0
27/09:00am 23.2 16.7 0.3 22 10.6 SSE 24 35 13 19 1021.1 1019.2 0.0
27/08:30am 22.4 15.9 0.3 23 10.1 SSE 24 33 13 18 1021.1 1019.2 0.0
27/08:00am 21.2 15.0 -0.1 24 9.6 SSE 22 30 12 16 1020.9 1018.9 0.0
27/07:30am 20.2 14.0 -0.4 25 9.2 S 22 28 12 15 1020.7 1018.7 0.0
27/07:00am 19.8 13.1 -0.8 25 9.0 S 24 32 13 17 1020.5 1018.5 0.0
27/06:30am 19.9 13.9 -1.2 24 9.2 S 20 30 11 16 1020.4 1018.4 0.0
27/06:00am 20.5 13.8 -1.3 23 9.5 S 24 32 13 17 1020.1 1018.2 0.0
27/05:30am 20.8 14.9 -1.1 23 9.7 S 20 26 11 14 1020.0 1018.1 0.0
27/05:00am 21.2 15.4 -1.3 22 9.9 S 19 24 10 13 1019.8 1017.9 0.0
27/04:30am 21.5 15.8 -1.1 22 10.0 S 19 24 10 13 1019.6 1017.7 0.0
27/04:00am 22.1 16.1 -1.2 21 10.4 S 20 28 11 15 1019.4 1017.5 0.0
27/03:30am 22.5 16.6 -0.9 21 10.5 S 20 28 11 15 1019.4 1017.5 0.0
27/03:00am 22.9 17.0 -0.6 21 10.6 S 20 28 11 15 1019.4 1017.5 0.0
27/02:30am 23.2 17.4 -0.3 21 10.8 S 20 30 11 16 1019.5 1017.6 0.0
27/02:00am 23.3 18.1 -0.2 21 10.8 S 17 26 9 14 1019.7 1017.8 0.0
27/01:30am 23.9 18.2 -0.4 20 11.1 S 19 24 10 13 1019.9 1018.0 0.0
27/01:00am 24.5 18.7 0.1 20 11.3 S 20 28 11 15 1020.1 1018.2 0.0
27/12:30am 25.1 18.9 -0.1 19 11.7 S 22 30 12 16 1020.1 1018.2 0.0
 
Date/Time
EST
Temp
°C
App
Temp
°C
Dew
Point
Rel
Hum
%
Delta-T
°C
Wind Press
QNH
hPa
Press
MSL
hPa
Rain
since 9 am
mm
Dir
 
Spd
km/h
Gust
km/h
Spd
kts
Gust
kts
26/11:30pm 26.0 20.3 0.6 19 12.1 S 20 28 11 15 1020.6 1018.6 0.0
26/11:00pm 26.6 20.9 0.4 18 12.4 S 20 26 11 14 1020.7 1018.7 0.0
26/10:30pm 27.3 21.7 0.1 17 12.9 S 19 28 10 15 1020.6 1018.6 0.0
26/10:00pm 28.0 22.5 0.7 17 13.2 SSE 19 26 10 14 1020.4 1018.4 0.0
26/09:30pm 28.3 22.7 0.1 16 13.5 SSE 19 24 10 13 1020.1 1018.2 0.0
26/09:00pm 28.6 23.4 0.3 16 13.6 SSE 17 28 9 15 1020.0 1018.1 0.0
26/08:30pm 28.8 23.1 -0.4 15 13.9 SSE 19 28 10 15 1019.7 1017.8 0.0
26/08:00pm 29.2 23.0 -0.1 15 14.0 SSE 22 30 12 16 1019.3 1017.4 0.0
26/07:30pm 29.5 23.2 -0.8 14 14.4 SSE 22 33 12 18 1019.1 1017.2 0.0
26/07:00pm 29.4 22.9 0.1 15 14.1 SSE 24 32 13 17 1018.9 1017.0 0.0
26/06:30pm 29.7 23.6 0.3 15 14.3 SSE 22 35 12 19 1018.6 1016.7 0.0
26/06:00pm 29.8 22.6 0.4 15 14.3 SSE 28 39 15 21 1018.3 1016.4 0.0
26/05:30pm 30.2 22.1 -0.2 14 14.7 SSE 32 44 17 24 1018.1 1016.2 0.0
26/05:00pm 30.7 22.5 -0.8 13 15.1 SSE 32 43 17 23 1018.1 1016.2 0.0
26/04:30pm 31.4 23.1 -0.3 13 15.4 S 33 46 18 25 1017.9 1015.9 0.0
26/04:00pm 31.6 23.5 -0.1 13 15.5 S 32 43 17 23 1017.8 1015.8 0.0
26/03:30pm 31.5 23.4 -0.2 13 15.4 S 32 44 17 24 1017.8 1015.8 0.0
26/03:00pm 31.8 24.1 0.0 13 15.6 S 30 43 16 23 1017.9 1015.9 0.0
26/02:30pm 31.8 24.1 0.0 13 15.6 S 30 41 16 22 1018.2 1016.3 0.0
26/02:00pm 31.7 24.0 -0.1 13 15.5 S 30 43 16 23 1018.5 1016.6 0.0
26/01:30pm 31.0 23.2 -0.6 13 15.2 S 30 41 16 22 1019.2 1017.3 0.0
26/01:00pm 31.3 23.9 -0.4 13 15.3 S 28 46 15 25 1019.5 1017.6 0.0
26/12:58pm 30.7 23.3 -0.8 13 15.1 S 28 46 15 25 1019.5 1017.6 0.0
26/12:30pm 30.6 22.6 0.1 14 14.8 SSE 32 44 17 24 1020.1 1018.2 0.0
26/12:00pm 29.1 22.2 -0.1 15 14.0 SSE 26 39 14 21 1020.7 1018.7 0.0
26/11:30am 28.6 20.6 0.3 16 13.6 SSE 32 44 17 24 1021.2 1019.3 0.0
26/11:00am 27.5 20.2 0.3 17 13.0 SE 28 35 15 19 1021.5 1019.6 0.0
26/10:30am 26.5 19.2 0.3 18 12.4 SSE 28 41 15 22 1021.8 1019.9 0.0
26/10:00am 25.6 18.3 0.3 19 11.9 SSE 28 39 15 21 1021.9 1020.0 0.0
26/09:30am 25.0 17.4 0.5 20 11.5 SSE 30 41 16 22 1021.8 1019.9 0.0
26/09:00am 24.5 17.2 0.1 20 11.3 SSE 28 39 15 21 1021.3 1019.4 0.0
26/08:30am 24.3 17.5 0.6 21 11.1 SSE 26 39 14 21 1021.0 1019.0 0.0
26/08:00am 24.0 17.1 0.4 21 11.0 SSE 26 35 14 19 1020.1 1018.2 0.0
26/07:30am 24.1 17.2 0.4 21 11.1 SSE 26 35 14 19 1019.9 1018.0 0.0
26/07:00am 24.1 16.8 -0.2 20 11.2 SSE 28 39 15 21 1019.5 1017.6 0.0
26/06:30am 24.2 16.1 -0.2 20 11.3 SSE 32 44 17 24 1018.9 1017.0 0.0
26/06:00am 24.5 17.2 0.1 20 11.3 SSE 28 41 15 22 1018.8 1016.9 0.0
26/05:30am 24.6 18.4 -0.5 19 11.6 S 22 30 12 16 1019.1 1017.2 0.0
26/05:00am 24.8 18.2 -0.4 19 11.6 S 24 33 13 18 1018.7 1016.8 0.0
26/04:30am 25.1 19.3 -0.1 19 11.7 S 20 32 11 17 1018.6 1016.7 0.0
26/04:00am 25.3 18.4 0.0 19 11.8 SSE 26 39 14 21 1018.3 1016.4 0.0
26/03:30am 25.6 19.0 -0.5 18 12.1 SSE 24 35 13 19 1018.2 1016.3 0.0
26/03:00am 25.8 19.6 -0.3 18 12.2 SSE 22 32 12 17 1018.3 1016.4 0.0
26/02:30am 26.0 20.2 -0.1 18 12.3 S 20 32 11 17 1018.6 1016.7 0.0
26/02:00am 26.2 20.6 0.0 18 12.3 S 19 28 10 15 1018.7 1016.8 0.0
26/01:30am 26.1 20.6 0.7 19 12.1 SSE 19 28 10 15 1018.6 1016.7 0.0
26/01:00am 26.7 19.8 0.4 18 12.5 S 26 37 14 20 1018.6 1016.7 0.0
26/12:30am 27.1 20.9 2.2 20 12.3 S 24 37 13 20 1018.7 1016.8 0.0
26/12:00am 27.4 21.0 3.2 21 12.1 SSE 26 35 14 19 1018.7 1016.8 0.0
 
Date/Time
EST
Temp
°C
App
Temp
°C
Dew
Point
Rel
Hum
%
Delta-T
°C
Wind Press
QNH
hPa
Press
MSL
hPa
Rain
since 9 am
mm
Dir
 
Spd
km/h
Gust
km/h
Spd
kts
Gust
kts
25/11:30pm 27.7 20.2 3.4 21 12.3 S 32 48 17 26 1018.7 1016.8 0.0
25/11:00pm 27.9 22.4 4.2 22 12.1 S 22 32 12 17 1019.0 1017.1 0.0
25/10:30pm 28.1 21.9 4.4 22 12.2 S 26 35 14 19 1019.0 1017.1 0.0
25/10:00pm 28.5 22.4 4.7 22 12.3 S 26 35 14 19 1018.9 1017.0 0.0
25/09:30pm 29.1 24.2 5.2 22 12.6 S 20 30 11 16 1018.8 1016.9 0.0
25/09:00pm 29.3 25.0 5.4 22 12.6 S 17 28 9 15 1018.6 1016.7 0.0
25/08:30pm 29.3 24.7 5.4 22 12.6 S 19 24 10 13 1018.4 1016.5 0.0
25/08:00pm 29.3 24.7 5.4 22 12.6 S 19 24 10 13 1018.1 1016.2 0.0
25/07:30pm 29.3 23.8 6.0 23 12.4 S 24 32 13 17 1017.9 1015.9 0.0
25/07:00pm 29.6 24.0 5.6 22 12.7 S 24 32 13 17 1017.6 1015.6 0.0
25/06:30pm 30.2 23.9 5.5 21 13.1 SSW 28 35 15 19 1017.1 1015.1 0.0
25/06:00pm 31.1 26.0 6.2 21 13.5 S 22 30 12 16 1016.5 1014.6 0.0
25/05:30pm 31.5 26.0 5.8 20 13.8 S 24 32 13 17 1016.1 1014.2 0.0
25/05:00pm 31.9 27.2 6.2 20 14.0 S 20 30 11 16 1015.8 1013.9 0.0
25/04:30pm 32.1 27.6 7.0 21 13.8 S 20 30 11 16 1015.8 1013.9 0.0
25/04:00pm 32.7 28.4 6.8 20 14.3 S 19 28 10 15 1015.6 1013.7 0.0
25/03:30pm 33.5 29.5 6.7 19 14.8 S 17 24 9 13 1015.6 1013.7 0.0
25/03:00pm 32.5 28.7 7.4 21 13.9 S 17 24 9 13 1015.8 1013.9 0.0
25/02:30pm 32.3 29.0 7.9 22 13.7 SSE 15 26 8 14 1016.1 1014.2 0.0
25/02:00pm 32.6 28.9 8.1 22 13.8 SSE 17 28 9 15 1016.4 1014.5 0.0
25/01:30pm 31.5 28.5 7.9 23 13.2 S 13 24 7 13 1016.9 1014.9 0.0
25/01:00pm 31.5 27.9 8.5 24 12.9 SSE 17 24 9 13 1017.1 1015.1 0.0
25/12:30pm 30.0 26.8 8.4 26 12.0 SSE 15 20 8 11 1017.6 1015.6 0.0
25/12:00pm 31.0 28.1 8.1 24 12.7 SSE 13 20 7 11 1018.2 1016.3 0.0
25/11:30am 28.6 25.4 6.7 25 11.8 S 13 22 7 12 1018.6 1016.7 0.0
25/11:00am 28.2 25.1 7.4 27 11.3 SSE 13 20 7 11 1018.9 1017.0 0.0
25/10:30am 26.9 22.8 6.3 27 10.9 SSE 17 24 9 13 1019.2 1017.3 0.0
25/10:00am 26.1 22.0 6.2 28 10.4 S 17 22 9 12 1019.3 1017.4 0.0
25/09:30am 25.7 21.6 6.3 29 10.2 S 17 24 9 13 1019.4 1017.5 0.0
25/09:00am 24.7 19.6 6.0 30 9.7 SSE 22 30 12 16 1019.2 1017.3 0.0
25/08:30am 23.5 18.8 5.9 32 9.1 S 20 30 11 16 1018.9 1017.0 0.0
25/08:00am 22.9 18.4 6.2 34 8.6 S 19 26 10 14 1018.7 1016.8 0.0
25/07:30am 22.6 19.7 6.4 35 8.4 S 11 17 6 9 1018.4 1016.5 0.0
25/07:00am 22.3 18.6 6.5 36 8.2 S 15 20 8 11 1018.2 1016.3 0.0
25/06:30am 22.5 18.9 6.7 36 8.2 S 15 20 8 11 1017.8 1015.8 0.0
25/06:00am 22.8 19.5 6.6 35 8.4 S 13 17 7 9 1017.5 1015.5 0.0
25/05:30am 23.2 19.2 6.5 34 8.7 S 17 20 9 11 1017.1 1015.1 0.0
25/05:00am 23.2 19.9 6.5 34 8.7 S 13 17 7 9 1016.6 1014.7 0.0
25/04:30am 23.4 20.5 6.7 34 8.7 SSE 11 15 6 8 1016.3 1014.4 0.0
25/04:00am 23.9 19.5 6.7 33 9.0 S 19 26 10 14 1016.0 1014.1 0.0
25/03:30am 24.3 20.4 7.0 33 9.1 S 17 26 9 14 1016.1 1014.2 0.0
25/03:00am 24.7 20.5 7.4 33 9.2 S 19 26 10 14 1016.0 1014.1 0.0
25/02:30am 25.2 20.8 7.3 32 9.6 S 20 32 11 17 1016.2 1014.3 0.0
25/02:00am 25.7 21.0 7.8 32 9.7 S 22 33 12 18 1016.2 1014.3 0.0
25/01:30am 25.9 21.6 8.0 32 9.7 S 20 28 11 15 1016.1 1014.2 0.0
25/01:00am 26.5 22.2 8.0 31 10.1 S 20 32 11 17 1016.2 1014.3 0.0
25/12:30am 26.8 21.9 8.3 31 10.1 S 24 32 13 17 1016.2 1014.3 0.0
25/12:00am 27.4 22.6 8.8 31 10.3 S 24 35 13 19 1016.4 1014.5 0.0
 
Date/Time
EST
Temp
°C
App
Temp
°C
Dew
Point
Rel
Hum
%
Delta-T
°C
Wind Press
QNH
hPa
Press
MSL
hPa
Rain
since 9 am
mm
Dir
 
Spd
km/h
Gust
km/h
Spd
kts
Gust
kts
24/11:30pm 27.7 23.6 8.6 30 10.6 S 20 30 11 16 1016.3 1014.4 0.0
24/11:00pm 28.3 23.4 8.6 29 10.9 S 24 32 13 17 1016.1 1014.2 0.0
24/10:30pm 29.0 24.2 8.7 28 11.3 S 24 32 13 17 1016.1 1014.2 0.0
24/10:00pm 29.5 24.7 7.4 25 12.1 S 22 32 12 17 1015.9 1014.0 0.0
24/09:30pm 30.1 25.5 6.7 23 12.7 S 20 26 11 14 1015.7 1013.8 0.0
24/09:00pm 30.5 25.9 5.7 21 13.3 S 19 24 10 13 1015.2 1013.3 0.0
24/08:30pm 31.4 26.6 5.8 20 13.8 S 20 28 11 15 1014.9 1013.0 0.0

Other Formats:

Comma delimited format used in spreadsheet applications
http://www.bom.gov.au/fwo/IDQ60801/IDQ60801.94336.axf

JavaScript Object Notation format (JSON) in row-major order
http://www.bom.gov.au/fwo/IDQ60801/IDQ60801.94336.json